Weather at Ocean Cay Airport

Public forecast

Using degrees Celsius for public forecast. Weather courtesy of forecast.io.

Closest aviation weather report (METAR) to Ocean Cay Airport

Closest report is Miami International Airport, 62.6 nm (116.0 km) WNW. Retrieved 2020/09/19 13:53 UTC (51 minutes ago):

KMIA 191353Z 34003KT 10SM SCT018 BKN250 30/25 A2992 RMK AO2 SLP132 T03000250

Closest aviation forecast (TAF) to Ocean Cay Airport

Forecast is more than 6 hours old.

Closest forecast is Miami International Airport, 62.6 nm (116.0 km) WNW. Retrieved 2020/09/19 06:39 UTC (8 hours ago):

TAF KMIA 190536Z 1906/2012 VRB03KT P6SM FEW020 SCT150 FM191500 22005KT P6SM FEW025 SCT150 FM191800 17010KT P6SM VCTS SCT025CB BKN200 FM200000 VRB04KT P6SM VCSH SCT025 BKN250 FM200200 VRB03KT P6SM FEW025 SCT250